TimeCST,TemperatureF,Dew PointF,Humidity,Sea Level PressureIn,VisibilityMPH,Wind Direction,Wind SpeedMPH,Gust SpeedMPH,PrecipitationIn,Events,Conditions,WindDirDegrees,DateUTC
12:15 AM,35.6,35.6,100,30.08,5.0,North,10.4,-,N/A,Rain,Light Rain,350,2013-01-17 06:15:00
12:35 AM,35.6,35.6,100,30.08,5.0,NNW,10.4,-,N/A,,Overcast,340,2013-01-17 06:35:00
1:15 AM,35.6,35.6,100,30.07,5.0,North,9.2,-,N/A,,Drizzle,360,2013-01-17 07:15:00
1:35 AM,35.6,35.6,100,30.06,5.0,North,8.1,-,N/A,,Light Drizzle,10,2013-01-17 07:35:00
1:55 AM,35.6,35.6,100,30.05,7.0,NNE,8.1,-,N/A,,Overcast,20,2013-01-17 07:55:00
2:15 AM,37.4,35.6,93,30.05,5.0,North,6.9,-,N/A,,Overcast,10,2013-01-17 08:15:00
2:35 AM,37.4,35.6,93,30.05,7.0,NNE,8.1,-,N/A,,Overcast,20,2013-01-17 08:35:00
2:55 AM,37.4,35.6,93,30.05,7.0,NNE,9.2,-,N/A,Rain,Rain,20,2013-01-17 08:55:00
3:15 AM,37.4,35.6,93,30.03,5.0,North,9.2,-,N/A,Rain,Light Rain,10,2013-01-17 09:15:00
3:35 AM,35.6,35.6,100,30.04,7.0,North,9.2,-,N/A,Rain,Light Rain,10,2013-01-17 09:35:00
3:55 AM,35.6,33.8,93,30.04,10.0,North,10.4,-,N/A,,Overcast,10,2013-01-17 09:55:00
4:15 AM,35.6,33.8,93,30.03,10.0,North,11.5,-,N/A,,Light Drizzle,10,2013-01-17 10:15:00
4:35 AM,35.6,32.0,87,30.04,10.0,NNE,9.2,-,N/A,,Overcast,20,2013-01-17 10:35:00
4:55 AM,35.6,32.0,87,30.04,10.0,North,11.5,-,N/A,Rain,Light Rain,10,2013-01-17 10:55:00
5:15 AM,35.6,32.0,87,30.03,10.0,NNE,8.1,17.3,N/A,,Overcast,20,2013-01-17 11:15:00
5:35 AM,35.6,30.2,81,30.03,10.0,North,9.2,-,N/A,,Overcast,10,2013-01-17 11:35:00
5:55 AM,35.6,28.4,75,30.02,10.0,NNE,11.5,-,N/A,,Overcast,30,2013-01-17 11:55:00
6:15 AM,35.6,28.4,75,30.00,10.0,NNE,11.5,-,N/A,,Overcast,30,2013-01-17 12:15:00
6:35 AM,35.6,28.4,75,30.03,10.0,North,13.8,19.6,N/A,,Overcast,350,2013-01-17 12:35:00
6:55 AM,35.6,28.4,75,30.03,10.0,NNW,13.8,-,N/A,,Overcast,340,2013-01-17 12:55:00
7:15 AM,35.6,28.4,75,30.02,10.0,North,18.4,-,N/A,,Overcast,350,2013-01-17 13:15:00
7:35 AM,35.6,28.4,75,30.01,10.0,North,19.6,-,N/A,,Overcast,350,2013-01-17 13:35:00
7:55 AM,35.6,28.4,75,30.04,10.0,NNW,19.6,25.3,N/A,,Overcast,340,2013-01-17 13:55:00
8:15 AM,35.6,26.6,70,30.05,7.0,NNW,17.3,24.2,N/A,Rain,Light Rain,340,2013-01-17 14:15:00
8:35 AM,35.6,26.6,70,30.04,10.0,North,19.6,25.3,N/A,,Overcast,360,2013-01-17 14:35:00
8:55 AM,35.6,28.4,75,30.05,10.0,North,17.3,24.2,N/A,,Overcast,350,2013-01-17 14:55:00
9:15 AM,35.6,28.4,75,30.06,10.0,NNW,18.4,26.5,N/A,,Overcast,340,2013-01-17 15:15:00
9:35 AM,33.8,28.4,81,30.05,3.0,NNW,18.4,-,N/A,Snow,Light Snow,340,2013-01-17 15:35:00
9:55 AM,35.6,28.4,75,30.06,10.0,NNW,15.0,24.2,N/A,Snow,Light Snow,330,2013-01-17 15:55:00
10:15 AM,35.6,30.2,81,30.06,10.0,NNW,16.1,23.0,N/A,Snow,Light Snow,340,2013-01-17 16:15:00
10:35 AM,33.8,28.4,81,30.06,4.0,NNW,18.4,28.8,N/A,Snow,Light Snow,340,2013-01-17 16:35:00
10:55 AM,33.8,30.2,87,30.08,7.0,North,17.3,24.2,N/A,Snow,Light Snow,350,2013-01-17 16:55:00
11:15 AM,33.8,32.0,93,30.08,10.0,North,15.0,20.7,N/A,,Overcast,350,2013-01-17 17:15:00
11:35 AM,33.8,32.0,93,30.07,3.0,NNW,12.7,-,N/A,Snow,Light Snow,330,2013-01-17 17:35:00
11:55 AM,33.8,33.8,100,30.06,7.0,North,12.7,-,N/A,Snow,Light Snow,350,2013-01-17 17:55:00
12:15 PM,33.8,33.8,100,30.06,5.0,NNW,13.8,-,N/A,,Overcast,340,2013-01-17 18:15:00
12:55 PM,33.8,33.8,100,30.06,5.0,NNW,17.3,23.0,N/A,,Light Drizzle,330,2013-01-17 18:55:00
1:15 PM,35.6,33.8,93,30.06,10.0,NNW,19.6,23.0,N/A,,Overcast,340,2013-01-17 19:15:00
1:35 PM,35.6,33.8,93,30.06,10.0,NNW,18.4,29.9,N/A,,Overcast,340,2013-01-17 19:35:00
1:55 PM,37.4,33.8,87,30.08,10.0,NNW,18.4,21.9,N/A,,Overcast,330,2013-01-17 19:55:00
2:15 PM,41.0,33.8,76,30.08,10.0,North,19.6,26.5,N/A,,Overcast,350,2013-01-17 20:15:00
2:35 PM,42.8,32.0,66,30.11,10.0,North,20.7,31.1,N/A,,Overcast,350,2013-01-17 20:35:00
2:55 PM,42.8,32.0,66,30.11,10.0,North,23.0,28.8,N/A,,Scattered Clouds,350,2013-01-17 20:55:00
3:15 PM,42.8,32.0,66,30.15,10.0,North,20.7,31.1,N/A,,Mostly Cloudy,350,2013-01-17 21:15:00
3:35 PM,42.8,32.0,66,30.17,10.0,NNW,18.4,29.9,N/A,,Overcast,340,2013-01-17 21:35:00
3:55 PM,42.8,32.0,66,30.19,10.0,NNW,21.9,31.1,N/A,,Mostly Cloudy,340,2013-01-17 21:55:00
4:15 PM,42.8,32.0,66,30.21,10.0,North,18.4,26.5,N/A,,Mostly Cloudy,350,2013-01-17 22:15:00
4:35 PM,42.8,33.8,70,30.23,10.0,NNW,12.7,24.2,N/A,,Overcast,340,2013-01-17 22:35:00
4:55 PM,42.8,33.8,70,30.25,10.0,North,17.3,-,N/A,,Scattered Clouds,350,2013-01-17 22:55:00
5:15 PM,41.0,32.0,70,30.28,10.0,NNW,11.5,-,N/A,,Clear,340,2013-01-17 23:15:00
5:35 PM,41.0,32.0,70,30.29,10.0,NNW,10.4,-,N/A,,Clear,340,2013-01-17 23:35:00
5:55 PM,41.0,32.0,70,30.29,10.0,NNW,8.1,-,N/A,,Clear,340,2013-01-17 23:55:00
6:15 PM,39.2,32.0,75,30.31,10.0,North,8.1,-,N/A,,Clear,350,2013-01-18 00:15:00
6:35 PM,37.4,32.0,81,30.32,10.0,North,4.6,-,N/A,,Clear,350,2013-01-18 00:35:00
6:55 PM,35.6,32.0,87,30.33,10.0,Calm,Calm,-,N/A,,Clear,0,2013-01-18 00:55:00
7:15 PM,35.6,32.0,87,30.34,10.0,Calm,Calm,-,N/A,,Clear,0,2013-01-18 01:15:00
7:35 PM,33.8,32.0,93,30.35,10.0,Calm,Calm,-,N/A,,Clear,0,2013-01-18 01:35:00
8:15 PM,35.6,33.8,93,30.37,10.0,NNW,8.1,-,N/A,,Clear,330,2013-01-18 02:15:00
8:35 PM,35.6,33.8,93,30.38,10.0,NNW,8.1,-,N/A,,Clear,340,2013-01-18 02:35:00
8:55 PM,37.4,32.0,81,30.38,10.0,NNW,9.2,-,N/A,,Clear,340,2013-01-18 02:55:00
9:15 PM,37.4,32.0,81,30.39,10.0,NNW,9.2,-,N/A,,Clear,340,2013-01-18 03:15:00
9:35 PM,35.6,32.0,87,30.40,10.0,NNW,6.9,-,N/A,,Clear,340,2013-01-18 03:35:00
9:55 PM,35.6,32.0,87,30.40,10.0,North,6.9,-,N/A,,Clear,350,2013-01-18 03:55:00
11:15 PM,35.6,32.0,87,30.42,10.0,North,9.2,-,N/A,,Clear,360,2013-01-18 05:15:00
11:35 PM,35.6,32.0,87,30.43,10.0,North,9.2,-,N/A,,Clear,10,2013-01-18 05:35:00
11:55 PM,35.6,32.0,87,30.43,10.0,North,10.4,16.1,N/A,,Clear,10,2013-01-18 05:55:00